Time;durP1;ratioP1;P1;durP2;ratioP2;P2;SDS_P1;SDS_P2;PMS_P1;PMS_P2;Temp;Humidity;BMP_temperature;BMP_pressure;BME280_temperature;BME280_humidity;BME280_pressure;Samples;Min_cycle;Max_cycle;Signal;HPM_P1;HPM_P2
2022/02/24 00:00:48;;;;;;;6.17;3.57;;;8.10;1.00;;;;;;5075506;28;20462;-55
2022/02/24 00:03:15;;;;;;;5.30;3.20;;;8.00;1.00;;;;;;5075286;28;20453;-59
2022/02/24 00:05:42;;;;;;;7.10;4.43;;;8.00;1.00;;;;;;5074129;28;20759;-58
2022/02/24 00:08:09;;;;;;;9.03;4.97;;;7.90;1.00;;;;;;5076903;28;20461;-59
2022/02/24 00:10:40;;;;;;;9.80;4.00;;;7.90;1.00;;;;;;5061743;28;20464;-56
2022/02/24 00:13:07;;;;;;;9.70;4.23;;;7.80;1.00;;;;;;5075838;28;20493;-55
2022/02/24 00:15:34;;;;;;;7.00;4.20;;;7.80;1.00;;;;;;5075993;28;20489;-55
2022/02/24 00:18:01;;;;;;;6.27;4.03;;;7.70;1.00;;;;;;5075892;28;20530;-56
2022/02/24 00:20:28;;;;;;;5.50;4.10;;;7.70;1.00;;;;;;5077095;28;20503;-58
2022/02/24 00:22:55;;;;;;;7.80;3.73;;;7.60;1.00;;;;;;5075447;28;20457;-55
2022/02/24 00:25:22;;;;;;;10.93;4.60;;;7.60;1.00;;;;;;5076919;28;20461;-54
2022/02/24 00:27:50;;;;;;;8.13;4.30;;;7.50;1.00;;;;;;5075935;28;20469;-54
2022/02/24 00:30:17;;;;;;;5.73;3.40;;;7.50;1.00;;;;;;5077560;28;20473;-57
2022/02/24 00:32:47;;;;;;;10.03;4.30;;;7.40;1.00;;;;;;5076891;28;20529;-55
2022/02/24 00:35:14;;;;;;;6.17;3.97;;;7.40;1.00;;;;;;5057234;28;20458;-53
2022/02/24 00:37:41;;;;;;;7.53;4.30;;;7.40;1.00;;;;;;5076347;28;20461;-54
2022/02/24 00:40:09;;;;;;;6.80;3.50;;;7.40;1.00;;;;;;5077151;28;20483;-56
2022/02/24 00:42:36;;;;;;;12.27;4.40;;;7.40;1.00;;;;;;5065937;28;20461;-57
2022/02/24 00:45:05;;;;;;;9.57;4.97;;;7.40;1.00;;;;;;5076883;28;20769;-56
2022/02/24 00:47:37;;;;;;;9.40;4.00;;;7.30;1.00;;;;;;5076982;28;20465;-53
2022/02/24 00:50:07;;;;;;;6.33;3.90;;;7.30;1.00;;;;;;5056989;28;20489;-57
2022/02/24 00:52:34;;;;;;;14.50;4.37;;;7.30;1.00;;;;;;5062028;28;20488;-59
2022/02/24 00:55:01;;;;;;;9.03;4.23;;;7.30;1.00;;;;;;5077000;28;20766;-56
2022/02/24 00:57:30;;;;;;;7.00;4.30;;;7.40;1.00;;;;;;5076952;28;20762;-54
2022/02/24 00:59:57;;;;;;;9.03;4.33;;;7.40;1.00;;;;;;5075732;28;20462;-58
2022/02/24 01:02:28;;;;;;;8.60;4.00;;;7.50;1.00;;;;;;5076628;28;20884;-58
2022/02/24 01:04:55;;;;;;;6.50;3.80;;;7.50;1.00;;;;;;5079970;28;20513;-57
2022/02/24 01:07:22;;;;;;;7.60;4.10;;;7.50;1.00;;;;;;5080905;28;20461;-56
2022/02/24 01:09:49;;;;;;;11.83;4.40;;;7.60;1.00;;;;;;5080234;28;20815;-57
2022/02/24 01:12:16;;;;;;;8.87;4.23;;;7.60;1.00;;;;;;5080482;28;20489;-58
2022/02/24 01:14:43;;;;;;;6.83;3.70;;;7.60;1.00;;;;;;5079963;28;20489;-56
2022/02/24 01:17:10;;;;;;;10.20;4.43;;;7.60;1.00;;;;;;5079996;28;20959;-58
2022/02/24 01:19:38;;;;;;;6.80;3.90;;;7.60;1.00;;;;;;5082604;28;20762;-55
2022/02/24 01:22:05;;;;;;;8.40;4.90;;;7.60;1.00;;;;;;5080546;28;20461;-55
2022/02/24 01:24:32;;;;;;;10.53;3.80;;;7.60;1.00;;;;;;5079376;28;20465;-60
2022/02/24 01:27:00;;;;;;;7.20;4.30;;;7.60;1.00;;;;;;5080323;28;20461;-56
2022/02/24 01:29:27;;;;;;;8.40;4.20;;;7.60;1.00;;;;;;5079978;28;20461;-58
2022/02/24 01:31:54;;;;;;;6.03;4.00;;;7.60;1.00;;;;;;5080019;28;20502;-57
2022/02/24 01:34:20;;;;;;;15.57;4.40;;;7.70;1.00;;;;;;5080261;28;20511;-57
2022/02/24 01:36:49;;;;;;;8.40;4.00;;;7.70;1.00;;;;;;5080063;28;20461;-57
2022/02/24 01:39:16;;;;;;;7.30;4.43;;;7.70;1.00;;;;;;5080442;28;20461;-59
2022/02/24 01:41:43;;;;;;;6.83;3.97;;;7.60;1.00;;;;;;5079233;28;20442;-59
2022/02/24 01:44:13;;;;;;;7.40;4.60;;;7.60;1.00;;;;;;5079815;28;20516;-59
2022/02/24 01:46:41;;;;;;;4.43;3.60;;;7.60;1.00;;;;;;5061344;28;20886;-56
2022/02/24 01:49:10;;;;;;;12.17;5.10;;;7.60;1.00;;;;;;5080217;28;20483;-58
2022/02/24 01:51:38;;;;;;;9.30;4.50;;;7.60;1.00;;;;;;5079159;28;20443;-58
2022/02/24 01:54:07;;;;;;;6.73;4.03;;;7.60;1.00;;;;;;5079514;28;20461;-58
2022/02/24 01:56:35;;;;;;;7.47;5.80;;;7.60;1.00;;;;;;5079516;28;20461;-56
2022/02/24 01:59:03;;;;;;;12.27;5.63;;;7.60;1.00;;;;;;5079682;28;20461;-59
2022/02/24 02:01:30;;;;;;;12.50;4.70;;;7.60;1.00;;;;;;5079255;28;20530;-57
2022/02/24 02:03:57;;;;;;;5.20;3.93;;;7.60;1.00;;;;;;5079551;28;20812;-58
2022/02/24 02:06:24;;;;;;;7.37;3.57;;;7.60;1.00;;;;;;5079367;28;20746;-58
2022/02/24 02:08:51;;;;;;;8.23;3.80;;;7.60;1.00;;;;;;5079552;28;20531;-58
2022/02/24 02:11:20;;;;;;;8.90;3.83;;;7.60;1.00;;;;;;5079167;28;20468;-55
2022/02/24 02:13:47;;;;;;;8.73;3.63;;;7.60;1.00;;;;;;5079042;28;20551;-59
2022/02/24 02:16:14;;;;;;;10.50;4.40;;;7.60;1.00;;;;;;5077712;28;20461;-56
2022/02/24 02:18:41;;;;;;;13.57;4.20;;;7.60;1.00;;;;;;5079707;28;20531;-57
2022/02/24 02:21:10;;;;;;;18.23;3.27;;;7.60;1.00;;;;;;5079102;28;20766;-57
2022/02/24 02:23:37;;;;;;;10.30;3.80;;;7.60;1.00;;;;;;5077544;28;20461;-58
2022/02/24 02:26:46;;;;;;;6.37;3.83;;;7.60;1.00;;;;;;5078958;28;20461;-56
2022/02/24 02:29:14;;;;;;;7.13;4.20;;;7.60;1.00;;;;;;5067037;28;20468;-58
2022/02/24 02:31:41;;;;;;;8.60;4.23;;;7.60;1.00;;;;;;5078321;28;20461;-55
2022/02/24 02:34:10;;;;;;;8.23;3.63;;;7.60;1.00;;;;;;5077786;28;20490;-58
2022/02/24 02:36:39;;;;;;;8.47;3.90;;;7.60;1.00;;;;;;5078847;28;20917;-57
2022/02/24 02:39:10;;;;;;;8.33;4.27;;;7.60;1.00;;;;;;5079366;28;20515;-56
2022/02/24 02:41:39;;;;;;;7.40;3.80;;;7.60;1.00;;;;;;5078628;28;20468;-56
2022/02/24 02:44:07;;;;;;;6.80;3.27;;;7.60;1.00;;;;;;5078427;28;20563;-56
2022/02/24 02:46:35;;;;;;;6.30;3.40;;;7.60;1.00;;;;;;5078448;28;20472;-57
2022/02/24 02:49:02;;;;;;;6.57;4.00;;;7.60;1.00;;;;;;5079000;28;20808;-58
2022/02/24 02:51:29;;;;;;;7.43;3.70;;;7.60;1.00;;;;;;5078316;28;20971;-58
2022/02/24 02:53:58;;;;;;;8.03;4.03;;;7.50;1.00;;;;;;5078010;28;20497;-59
2022/02/24 02:56:25;;;;;;;12.60;4.50;;;7.60;1.00;;;;;;5078481;28;20461;-58
2022/02/24 02:58:52;;;;;;;8.10;3.60;;;7.50;1.00;;;;;;5078717;28;20466;-59
2022/02/24 03:01:19;;;;;;;5.27;4.00;;;7.50;1.00;;;;;;5078880;28;20457;-58
2022/02/24 03:03:46;;;;;;;7.63;3.67;;;7.50;1.00;;;;;;5078321;28;20796;-58
2022/02/24 03:06:13;;;;;;;7.90;4.30;;;7.50;1.00;;;;;;5078513;28;20462;-59
2022/02/24 03:08:41;;;;;;;7.07;3.90;;;7.50;1.00;;;;;;5078432;28;20956;-59
2022/02/24 03:11:09;;;;;;;9.00;4.03;;;7.50;1.00;;;;;;5078770;28;20468;-57
2022/02/24 03:13:37;;;;;;;10.40;4.00;;;7.50;1.00;;;;;;5077572;28;20505;-55
2022/02/24 03:16:04;;;;;;;9.07;5.27;;;7.50;1.00;;;;;;5078348;28;20523;-58
2022/02/24 03:18:34;;;;;;;17.27;4.67;;;7.50;1.00;;;;;;5077891;28;20466;-56
2022/02/24 03:21:02;;;;;;;13.00;4.47;;;7.50;1.00;;;;;;5078320;28;20457;-57
2022/02/24 03:23:29;;;;;;;5.33;3.20;;;7.50;1.00;;;;;;5078165;28;20526;-59
2022/02/24 03:25:56;;;;;;;7.50;4.00;;;7.50;1.00;;;;;;5077544;28;20505;-59
2022/02/24 03:28:24;;;;;;;14.00;4.53;;;7.50;1.00;;;;;;5077968;28;20461;-57
2022/02/24 03:30:51;;;;;;;8.83;3.50;;;7.50;1.00;;;;;;5078266;28;20512;-56
2022/02/24 03:33:18;;;;;;;6.70;3.90;;;7.50;1.00;;;;;;5077465;28;20493;-53
2022/02/24 03:35:46;;;;;;;8.70;4.33;;;7.50;1.00;;;;;;5076984;28;20465;-59
2022/02/24 03:38:12;;;;;;;7.47;3.80;;;7.50;1.00;;;;;;5078180;28;20902;-58
2022/02/24 03:40:40;;;;;;;8.07;4.20;;;7.50;1.00;;;;;;5077928;28;20819;-56
2022/02/24 03:43:07;;;;;;;7.37;3.60;;;7.40;1.00;;;;;;5078510;28;20457;-58
2022/02/24 03:45:38;;;;;;;8.30;4.30;;;7.50;1.00;;;;;;5077335;28;20470;-59
2022/02/24 03:48:05;;;;;;;4.73;2.80;;;7.50;1.00;;;;;;5077305;28;20515;-57
2022/02/24 03:50:33;;;;;;;7.30;4.07;;;7.50;1.00;;;;;;5077980;28;20491;-58
2022/02/24 03:53:00;;;;;;;7.73;3.17;;;7.50;1.00;;;;;;5078081;28;20493;-58
2022/02/24 03:55:27;;;;;;;7.20;3.37;;;7.50;1.00;;;;;;5077575;28;20515;-59
2022/02/24 03:57:54;;;;;;;8.00;3.90;;;7.50;1.00;;;;;;5077455;28;20469;-56
2022/02/24 04:00:22;;;;;;;7.23;3.67;;;7.40;1.00;;;;;;5077877;28;20872;-56
2022/02/24 04:02:50;;;;;;;10.70;4.30;;;7.50;1.00;;;;;;5076957;28;20489;-56
2022/02/24 04:05:17;;;;;;;11.50;4.03;;;7.50;1.00;;;;;;5078002;28;20780;-56
2022/02/24 04:07:44;;;;;;;6.33;3.70;;;7.50;1.00;;;;;;5076898;28;20522;-58
2022/02/24 04:10:11;;;;;;;6.10;4.23;;;7.40;1.00;;;;;;5076886;28;20468;-56
2022/02/24 04:12:39;;;;;;;9.73;3.80;;;7.40;1.00;;;;;;5076905;28;20465;-57
2022/02/24 04:15:06;;;;;;;11.73;4.67;;;7.50;1.00;;;;;;5077772;28;20493;-56
2022/02/24 04:17:33;;;;;;;9.83;4.00;;;7.40;1.00;;;;;;5077859;28;21396;-56
2022/02/24 04:20:02;;;;;;;4.93;3.43;;;7.40;1.00;;;;;;5077553;28;20466;-57
2022/02/24 04:22:29;;;;;;;10.63;4.30;;;7.40;1.00;;;;;;5077596;28;20473;-58
2022/02/24 04:24:58;;;;;;;5.60;3.20;;;7.40;1.00;;;;;;5076880;28;20475;-56
2022/02/24 04:27:25;;;;;;;4.50;2.80;;;7.40;1.00;;;;;;5077774;28;20461;-59
2022/02/24 04:29:52;;;;;;;6.93;3.40;;;7.50;1.00;;;;;;5077776;28;20461;-58
2022/02/24 04:32:19;;;;;;;5.87;3.50;;;7.50;1.00;;;;;;5077795;28;20816;-59
2022/02/24 04:34:46;;;;;;;10.13;3.37;;;7.50;1.00;;;;;;5077171;28;20493;-59
2022/02/24 04:37:16;;;;;;;8.93;3.77;;;7.50;1.00;;;;;;5077670;28;20464;-58
2022/02/24 04:39:43;;;;;;;8.53;3.60;;;7.40;1.00;;;;;;5076191;28;20474;-60
2022/02/24 04:42:10;;;;;;;7.43;4.20;;;7.40;1.00;;;;;;5077230;28;20941;-58
2022/02/24 04:44:37;;;;;;;10.50;4.63;;;7.50;1.00;;;;;;5076295;28;20461;-59
2022/02/24 04:47:05;;;;;;;5.43;3.60;;;7.50;1.00;;;;;;5076939;28;20530;-59
2022/02/24 04:49:31;;;;;;;7.33;3.70;;;7.40;1.00;;;;;;5077103;28;20580;-54
2022/02/24 04:51:59;;;;;;;4.60;3.50;;;7.40;1.00;;;;;;5077167;28;20496;-56
2022/02/24 04:54:27;;;;;;;10.20;3.97;;;7.40;1.00;;;;;;5076267;28;20965;-54
2022/02/24 04:56:54;;;;;;;8.00;4.17;;;7.40;1.00;;;;;;5070108;28;20945;-57
2022/02/24 04:59:21;;;;;;;8.00;4.10;;;7.40;1.00;;;;;;5077225;28;20484;-55
2022/02/24 05:01:48;;;;;;;6.93;4.00;;;7.50;1.00;;;;;;5077076;28;20514;-57
2022/02/24 05:04:16;;;;;;;8.47;3.70;;;7.50;1.00;;;;;;5072572;28;20519;-58
2022/02/24 05:06:43;;;;;;;8.43;3.90;;;7.50;1.00;;;;;;5075980;28;20471;-57
2022/02/24 05:09:10;;;;;;;7.20;3.77;;;7.50;1.00;;;;;;5076211;28;20465;-58
2022/02/24 05:11:38;;;;;;;7.60;4.07;;;7.40;1.00;;;;;;5076180;28;20522;-57
2022/02/24 05:14:08;;;;;;;8.70;3.60;;;7.40;1.00;;;;;;5076183;28;20939;-59
2022/02/24 05:16:35;;;;;;;7.60;3.43;;;7.50;1.00;;;;;;5075726;28;20469;-59
2022/02/24 05:19:02;;;;;;;5.10;3.57;;;7.40;1.00;;;;;;5076890;28;20464;-59
2022/02/24 05:21:29;;;;;;;6.83;3.70;;;7.50;1.00;;;;;;5076564;28;20461;-60
2022/02/24 05:23:56;;;;;;;6.13;4.23;;;7.50;1.00;;;;;;5077112;28;20511;-59
2022/02/24 05:26:23;;;;;;;9.80;3.63;;;7.50;1.00;;;;;;5076465;28;20461;-59
2022/02/24 05:28:52;;;;;;;7.03;3.83;;;7.50;1.00;;;;;;5076834;28;20465;-58
2022/02/24 05:31:19;;;;;;;8.83;3.67;;;7.50;1.00;;;;;;5077235;28;20526;-56
2022/02/24 05:33:45;;;;;;;9.87;4.00;;;7.50;1.00;;;;;;5077120;28;20582;-58
2022/02/24 05:36:13;;;;;;;8.03;3.90;;;7.60;1.00;;;;;;5076722;28;20469;-59
2022/02/24 05:38:39;;;;;;;11.03;4.13;;;7.50;1.00;;;;;;5076628;28;20550;-58
2022/02/24 05:41:09;;;;;;;11.73;4.23;;;7.60;1.00;;;;;;5077587;28;20464;-58
2022/02/24 05:43:36;;;;;;;7.10;3.63;;;7.60;1.00;;;;;;5077335;28;20464;-59
2022/02/24 05:46:04;;;;;;;9.60;4.07;;;7.50;1.00;;;;;;5076750;28;20511;-59
2022/02/24 05:48:32;;;;;;;7.30;3.50;;;7.60;1.00;;;;;;5076951;28;20583;-55
2022/02/24 05:50:59;;;;;;;19.70;4.30;;;7.60;1.00;;;;;;5078573;28;20465;-57
2022/02/24 05:53:26;;;;;;;14.77;4.03;;;7.60;1.00;;;;;;5076339;28;20488;-59
2022/02/24 05:55:53;;;;;;;6.50;3.40;;;7.50;1.00;;;;;;5080650;28;20534;-56
2022/02/24 05:58:20;;;;;;;10.27;4.53;;;7.60;1.00;;;;;;5079891;28;20461;-59
2022/02/24 06:00:47;;;;;;;9.53;3.80;;;7.50;1.00;;;;;;5080802;28;20460;-56
2022/02/24 06:03:15;;;;;;;9.33;4.10;;;7.50;1.00;;;;;;5079931;28;20469;-57
2022/02/24 06:05:46;;;;;;;7.93;3.80;;;7.60;1.00;;;;;;5080792;28;20462;-55
2022/02/24 06:08:13;;;;;;;9.77;3.60;;;7.50;1.00;;;;;;5079402;28;20465;-56
2022/02/24 06:10:40;;;;;;;8.30;4.17;;;7.50;1.00;;;;;;5079849;28;20829;-57
2022/02/24 06:13:07;;;;;;;9.33;3.60;;;7.50;1.00;;;;;;5079928;28;20468;-59
2022/02/24 06:15:34;;;;;;;7.37;3.53;;;7.60;1.00;;;;;;5080007;28;20440;-59
2022/02/24 06:18:07;;;;;;;6.47;3.40;;;7.60;1.00;;;;;;5077800;28;20784;-59
2022/02/24 06:20:36;;;;;;;7.33;3.27;;;7.60;1.00;;;;;;5075679;28;20487;-58
2022/02/24 06:23:03;;;;;;;7.53;3.27;;;7.60;1.00;;;;;;5077672;28;20487;-58
2022/02/24 06:25:30;;;;;;;6.03;3.37;;;7.70;1.00;;;;;;5077949;28;20457;-56
2022/02/24 06:27:58;;;;;;;8.00;3.83;;;7.60;1.00;;;;;;5075663;28;20461;-57
2022/02/24 06:30:27;;;;;;;5.87;3.37;;;7.60;1.00;;;;;;5078131;28;20496;-58
2022/02/24 06:32:54;;;;;;;6.30;3.60;;;7.60;1.00;;;;;;5075840;28;20457;-58
2022/02/24 06:35:21;;;;;;;11.00;3.77;;;7.60;1.00;;;;;;5078102;28;20493;-59
2022/02/24 06:37:53;;;;;;;10.10;4.77;;;7.70;1.00;;;;;;5077546;28;20523;-60
2022/02/24 06:40:20;;;;;;;5.63;3.13;;;7.70;1.00;;;;;;5075630;28;20461;-58
2022/02/24 06:42:48;;;;;;;8.47;4.10;;;7.70;1.00;;;;;;5077086;28;20490;-59
2022/02/24 06:45:17;;;;;;;7.47;3.97;;;7.60;1.00;;;;;;5077928;28;20548;-57
2022/02/24 06:47:44;;;;;;;9.53;4.23;;;7.70;1.00;;;;;;5078006;28;20469;-57
2022/02/24 06:50:11;;;;;;;6.63;4.10;;;7.70;1.00;;;;;;5078079;28;20511;-60
2022/02/24 06:52:41;;;;;;;12.33;3.60;;;7.70;1.00;;;;;;5078326;28;20472;-58
2022/02/24 06:55:12;;;;;;;5.83;3.10;;;7.70;1.00;;;;;;5077312;28;20493;-57
2022/02/24 06:57:40;;;;;;;6.33;3.30;;;7.80;1.00;;;;;;5078407;28;20468;-58
2022/02/24 07:00:09;;;;;;;4.93;3.97;;;7.80;1.00;;;;;;5078333;28;20465;-59
2022/02/24 07:02:36;;;;;;;7.67;4.43;;;7.80;1.00;;;;;;5078020;28;20469;-60
2022/02/24 07:05:04;;;;;;;6.33;3.10;;;7.70;1.00;;;;;;5076534;28;20515;-59
2022/02/24 07:07:34;;;;;;;6.53;3.40;;;7.70;1.00;;;;;;5077520;28;20548;-59
2022/02/24 07:10:02;;;;;;;7.07;3.10;;;7.80;1.00;;;;;;5077673;28;20465;-60
2022/02/24 07:12:32;;;;;;;5.10;3.27;;;7.80;1.00;;;;;;5078459;28;20772;-60
2022/02/24 07:15:02;;;;;;;6.30;3.87;;;7.80;1.00;;;;;;5077185;28;20497;-59
2022/02/24 07:17:30;;;;;;;11.20;3.63;;;7.80;1.00;;;;;;5078473;28;20469;-60
2022/02/24 07:19:57;;;;;;;8.67;3.37;;;7.90;1.00;;;;;;5078602;28;20820;-60
2022/02/24 07:22:25;;;;;;;7.97;4.17;;;7.90;1.00;;;;;;5078644;28;20530;-60
2022/02/24 07:24:53;;;;;;;12.53;4.43;;;8.00;1.00;;;;;;5078405;28;20568;-60
2022/02/24 07:27:20;;;;;;;4.97;3.27;;;8.00;1.00;;;;;;5078341;28;20518;-58
2022/02/24 07:29:49;;;;;;;6.07;3.70;;;8.00;1.00;;;;;;5078388;28;20485;-60
2022/02/24 07:32:16;;;;;;;3.97;3.30;;;8.00;1.00;;;;;;5078591;28;20789;-60
2022/02/24 07:34:46;;;;;;;5.33;3.63;;;8.00;1.00;;;;;;5077936;28;20497;-60
2022/02/24 07:37:14;;;;;;;5.70;3.70;;;8.00;1.00;;;;;;5078123;28;20819;-58
2022/02/24 07:39:41;;;;;;;6.50;3.67;;;8.00;1.00;;;;;;5077762;28;20493;-60
2022/02/24 07:42:08;;;;;;;6.20;3.90;;;8.00;1.00;;;;;;5078428;28;20461;-60
2022/02/24 07:44:35;;;;;;;11.03;3.87;;;8.00;1.00;;;;;;5077798;28;20464;-59
2022/02/24 07:47:07;;;;;;;7.73;4.00;;;8.10;1.00;;;;;;5077734;28;20465;-59
2022/02/24 07:49:34;;;;;;;6.67;3.73;;;8.10;1.00;;;;;;5077995;28;20461;-59
2022/02/24 07:52:01;;;;;;;7.80;3.77;;;8.20;1.00;;;;;;5077829;28;20461;-60
2022/02/24 07:54:28;;;;;;;5.93;3.40;;;8.20;1.00;;;;;;5077538;28;20489;-60
2022/02/24 07:56:55;;;;;;;13.13;4.13;;;8.20;1.00;;;;;;5077341;28;20462;-59
2022/02/24 07:59:22;;;;;;;8.13;3.53;;;8.20;1.00;;;;;;5077712;28;20461;-60
2022/02/24 08:01:51;;;;;;;4.30;3.47;;;8.20;1.00;;;;;;5077914;28;20838;-59
2022/02/24 08:04:20;;;;;;;7.03;3.30;;;8.20;1.00;;;;;;5077433;28;20950;-60
2022/02/24 08:06:51;;;;;;;9.37;3.43;;;8.20;1.00;;;;;;5077854;28;20476;-60
2022/02/24 08:09:18;;;;;;;5.40;3.40;;;8.20;1.00;;;;;;5077652;28;20461;-60
2022/02/24 08:12:38;;;;;;;8.97;3.30;;;8.20;1.00;;;;;;5077366;28;20484;-60
2022/02/24 08:14:33;;;;;;;6.67;3.07;;;8.20;1.00;;;;;;5075681;28;20489;-60
2022/02/24 08:17:03;;;;;;;6.67;3.77;;;8.30;1.00;;;;;;5077203;28;20458;-60
2022/02/24 08:19:34;;;;;;;6.17;3.47;;;8.30;1.00;;;;;;5077516;28;20511;-60
2022/02/24 08:22:02;;;;;;;5.70;2.80;;;8.30;1.00;;;;;;5076965;28;20500;-58
2022/02/24 08:24:29;;;;;;;5.30;3.23;;;8.30;1.00;;;;;;5077866;28;20461;-60
2022/02/24 08:26:56;;;;;;;6.73;3.67;;;8.30;1.00;;;;;;5076607;28;20515;-60
2022/02/24 08:29:25;;;;;;;12.53;3.23;;;8.30;1.00;;;;;;5077320;28;20458;-60
2022/02/24 08:31:52;;;;;;;7.67;3.30;;;8.30;1.00;;;;;;5076121;28;20491;-60
2022/02/24 08:34:19;;;;;;;4.97;3.70;;;8.30;1.00;;;;;;5075827;28;20688;-60
2022/02/24 08:36:48;;;;;;;6.07;3.20;;;8.20;1.00;;;;;;5076364;28;20515;-58
2022/02/24 08:39:15;;;;;;;8.63;3.90;;;8.20;1.00;;;;;;5076138;28;20478;-60
2022/02/24 08:41:43;;;;;;;7.67;3.70;;;8.10;1.00;;;;;;5077025;28;20483;-60
2022/02/24 08:44:10;;;;;;;8.73;4.80;;;8.20;1.00;;;;;;5076604;28;20465;-60
2022/02/24 08:46:37;;;;;;;7.77;3.77;;;8.20;1.00;;;;;;5077072;28;20465;-60
2022/02/24 08:49:04;;;;;;;13.97;4.10;;;8.20;1.00;;;;;;5077098;28;20464;-60
2022/02/24 08:51:32;;;;;;;9.30;4.57;;;8.10;1.00;;;;;;5077361;28;20467;-59
2022/02/24 08:54:00;;;;;;;7.10;4.10;;;8.10;1.00;;;;;;5076500;28;20461;-58
2022/02/24 08:56:27;;;;;;;8.80;5.30;;;8.10;1.00;;;;;;5076898;28;20462;-60
2022/02/24 08:58:54;;;;;;;6.07;3.00;;;8.20;1.00;;;;;;5076488;28;20461;-59
2022/02/24 09:01:24;;;;;;;6.97;3.93;;;8.20;1.00;;;;;;5077098;28;20462;-60
2022/02/24 09:03:51;;;;;;;8.57;3.63;;;8.20;1.00;;;;;;5075804;28;20469;-60
2022/02/24 09:06:21;;;;;;;6.37;3.80;;;8.20;1.00;;;;;;5076705;28;20481;-60
2022/02/24 09:08:48;;;;;;;7.90;3.60;;;8.20;1.00;;;;;;5076235;28;20491;-59
2022/02/24 09:11:17;;;;;;;8.07;4.50;;;8.20;1.00;;;;;;5076910;28;20928;-60
2022/02/24 09:13:44;;;;;;;8.80;3.87;;;8.20;1.00;;;;;;5076181;28;20832;-59
2022/02/24 09:16:11;;;;;;;10.63;3.80;;;8.10;1.00;;;;;;5076870;28;20551;-60
2022/02/24 09:18:38;;;;;;;8.27;3.60;;;8.10;1.00;;;;;;5076737;28;20750;-60
2022/02/24 09:21:10;;;;;;;12.90;4.60;;;8.00;1.00;;;;;;5077060;28;20862;-60
2022/02/24 09:23:37;;;;;;;6.20;3.73;;;8.00;1.00;;;;;;5076739;28;20461;-60
2022/02/24 09:26:04;;;;;;;8.73;4.47;;;7.90;1.00;;;;;;5079292;28;20531;-61
2022/02/24 09:28:32;;;;;;;5.93;3.63;;;7.90;1.00;;;;;;5080684;28;20461;-61
2022/02/24 09:30:59;;;;;;;7.90;3.60;;;7.80;1.00;;;;;;5080644;28;20562;-61
2022/02/24 09:33:29;;;;;;;6.73;4.20;;;7.70;23.60;;;;;;5078848;28;20469;-60
2022/02/24 09:35:56;;;;;;;12.50;4.00;;;7.70;74.00;;;;;;5078565;28;20497;-60
2022/02/24 09:38:25;;;;;;;7.73;3.70;;;7.60;92.10;;;;;;5079450;28;20848;-60
2022/02/24 09:40:54;;;;;;;5.27;4.00;;;7.60;99.90;;;;;;5077993;28;20469;-58
2022/02/24 09:43:23;;;;;;;8.83;4.40;;;7.60;99.90;;;;;;5078771;28;20882;-58
2022/02/24 09:45:52;;;;;;;9.87;3.70;;;7.50;99.90;;;;;;5079540;28;20514;-58
2022/02/24 09:48:20;;;;;;;8.17;4.70;;;7.50;99.90;;;;;;5080346;28;20465;-56
2022/02/24 09:50:50;;;;;;;10.47;4.30;;;7.40;99.90;;;;;;5079866;28;20523;-57
2022/02/24 09:53:18;;;;;;;6.67;4.10;;;7.40;99.90;;;;;;5079202;28;20813;-56
2022/02/24 09:55:45;;;;;;;8.90;3.93;;;7.40;1.00;;;;;;5078296;28;20557;-56
2022/02/24 09:58:13;;;;;;;8.43;4.10;;;7.40;1.00;;;;;;5077971;28;20473;-56
2022/02/24 10:00:41;;;;;;;10.30;4.90;;;7.40;1.00;;;;;;5078211;28;20984;-53
2022/02/24 10:03:29;;;;;;;9.40;3.90;;;7.30;1.00;;;;;;5075943;28;20567;-56
2022/02/24 10:05:56;;;;;;;13.47;4.93;;;7.30;1.00;;;;;;5077315;28;20453;-59
2022/02/24 10:08:28;;;;;;;9.23;3.77;;;7.30;1.00;;;;;;5075362;28;20464;-56
2022/02/24 10:10:57;;;;;;;9.60;4.80;;;7.30;1.00;;;;;;5077931;28;20462;-58
2022/02/24 10:13:28;;;;;;;5.77;3.90;;;7.30;99.90;;;;;;5077588;28;20546;-59
2022/02/24 10:15:57;;;;;;;9.43;4.50;;;7.40;99.90;;;;;;5078468;28;20493;-58
2022/02/24 10:18:25;;;;;;;7.07;4.00;;;7.40;99.90;;;;;;5078193;28;20472;-59
2022/02/24 10:20:56;;;;;;;7.87;3.60;;;7.40;99.90;;;;;;5077941;28;20473;-59
2022/02/24 10:23:31;;;;;;;8.70;4.10;;;7.30;1.00;;;;;;5077864;28;20556;-59
2022/02/24 10:26:02;;;;;;;11.17;3.90;;;7.40;1.00;;;;;;5078589;28;20474;-60
2022/02/24 10:28:32;;;;;;;5.33;3.40;;;7.40;1.00;;;;;;5077034;28;20469;-59
2022/02/24 10:31:11;;;;;;;12.13;4.37;;;7.50;99.90;;;;;;5077577;28;20530;-60
2022/02/24 10:33:42;;;;;;;10.80;4.83;;;7.40;99.90;;;;;;5077966;28;20465;-60
2022/02/24 10:36:20;;;;;;;5.30;3.70;;;7.50;99.90;;;;;;5077603;28;20493;-60
2022/02/24 10:38:59;;;;;;;13.40;3.90;;;7.50;1.00;;;;;;5078450;28;20457;-60
2022/02/24 10:41:31;;;;;;;10.40;5.10;;;7.50;99.90;;;;;;5077724;28;20898;-60
2022/02/24 10:44:15;;;;;;;11.40;3.80;;;7.50;1.00;;;;;;5078021;28;20457;-60
2022/02/24 10:46:44;;;;;;;7.53;4.33;;;7.50;1.00;;;;;;5076943;28;20458;-60
2022/02/24 10:49:13;;;;;;;9.30;4.10;;;7.50;1.00;;;;;;5078664;28;20457;-60
2022/02/24 10:51:42;;;;;;;6.10;3.83;;;7.50;1.00;;;;;;5077825;28;20466;-60
2022/02/24 10:54:10;;;;;;;6.17;4.03;;;7.60;1.00;;;;;;5078098;28;20461;-60
2022/02/24 10:56:39;;;;;;;10.33;4.70;;;7.50;1.00;;;;;;5076520;28;20582;-60
2022/02/24 10:59:07;;;;;;;11.43;4.63;;;7.40;40.80;;;;;;5078037;28;20515;-58
2022/02/24 11:01:40;;;;;;;7.47;4.10;;;7.40;99.90;;;;;;5077688;28;20586;-58
2022/02/24 11:04:10;;;;;;;10.77;4.60;;;7.40;1.00;;;;;;5067708;28;20457;-59
2022/02/24 11:06:39;;;;;;;23.63;11.70;;;7.40;1.00;;;;;;5078296;28;20514;-59
2022/02/24 11:09:09;;;;;;;13.90;6.53;;;7.40;1.00;;;;;;5078201;28;20932;-59
2022/02/24 11:11:38;;;;;;;9.40;5.17;;;7.30;1.00;;;;;;5078165;28;20472;-56
2022/02/24 11:14:08;;;;;;;14.30;5.73;;;7.40;1.00;;;;;;5069336;28;20497;-59
2022/02/24 11:16:35;;;;;;;12.93;6.40;;;7.40;1.00;;;;;;5078032;28;20921;-59
2022/02/24 11:19:02;;;;;;;11.27;5.90;;;7.50;4.50;;;;;;5078582;28;20473;-59
2022/02/24 11:21:32;;;;;;;9.53;5.03;;;7.50;99.90;;;;;;5078463;28;20461;-59
2022/02/24 11:24:02;;;;;;;10.30;5.50;;;7.70;14.40;;;;;;5078354;28;20461;-56
2022/02/24 11:26:45;;;;;;;11.13;5.37;;;8.00;1.00;;;;;;5077942;28;20774;-58
2022/02/24 11:29:28;;;;;;;6.67;5.20;;;8.30;99.90;;;;;;5078082;28;20967;-59
2022/02/24 11:32:06;;;;;;;7.77;4.80;;;8.50;1.00;;;;;;5078501;28;20468;-60
2022/02/24 11:34:55;;;;;;;9.20;4.73;;;8.50;99.90;;;;;;5077990;28;20457;-60
2022/02/24 11:37:24;;;;;;;7.60;4.67;;;8.40;99.90;;;;;;5077843;28;20514;-61
2022/02/24 11:40:01;;;;;;;8.30;4.50;;;8.40;99.90;;;;;;5077994;28;20502;-62
2022/02/24 11:42:32;;;;;;;8.00;4.83;;;8.40;99.90;;;;;;5078020;28;20464;-62
2022/02/24 11:45:00;;;;;;;8.07;4.70;;;8.40;99.90;;;;;;5077670;28;20945;-62
2022/02/24 11:47:29;;;;;;;8.67;4.60;;;8.50;99.90;;;;;;5077369;28;20536;-62
2022/02/24 11:50:12;;;;;;;7.43;4.53;;;8.50;99.60;;;;;;5077708;28;20518;-63
2022/02/24 11:52:51;;;;;;;7.80;5.17;;;8.50;26.20;;;;;;5077250;28;20504;-62
2022/02/24 11:55:54;;;;;;;8.97;3.80;;;8.60;21.00;;;;;;5077600;28;20528;-62
2022/02/24 11:58:50;;;;;;;8.43;5.13;;;8.50;1.00;;;;;;5078034;28;20456;-62
2022/02/24 12:01:28;;;;;;;8.87;5.40;;;8.50;1.00;;;;;;5077265;28;20457;-62
2022/02/24 12:04:08;;;;;;;14.40;4.63;;;8.60;1.00;;;;;;5077899;28;20464;-62
2022/02/24 12:06:54;;;;;;;5.97;3.73;;;8.40;1.00;;;;;;5077518;28;20908;-62
2022/02/24 12:09:26;;;;;;;6.37;4.03;;;8.50;1.00;;;;;;5077239;28;20468;-62
2022/02/24 12:11:56;;;;;;;8.67;4.20;;;8.50;1.00;;;;;;5076913;28;20461;-62
2022/02/24 12:14:57;;;;;;;6.13;4.27;;;8.40;1.00;;;;;;5076724;28;20523;-62
2022/02/24 12:17:44;;;;;;;4.83;3.63;;;8.40;1.00;;;;;;5066132;28;20456;-62
2022/02/24 12:20:19;;;;;;;5.23;3.87;;;8.40;1.00;;;;;;5076077;28;20538;-61
2022/02/24 12:22:49;;;;;;;7.60;4.10;;;8.60;1.00;;;;;;5075387;28;20510;-61
2022/02/24 12:25:18;;;;;;;6.80;4.33;;;8.60;1.00;;;;;;5075684;28;20898;-61
2022/02/24 12:27:48;;;;;;;9.73;4.27;;;8.70;1.00;;;;;;5075560;28;20469;-59
2022/02/24 12:30:33;;;;;;;6.43;3.90;;;8.70;4.30;;;;;;5076277;28;20902;-60
2022/02/24 12:33:04;;;;;;;6.93;5.43;;;8.70;12.80;;;;;;5075453;28;20473;-59
2022/02/24 12:35:36;;;;;;;7.90;5.07;;;8.70;16.20;;;;;;5075424;28;20532;-59
2022/02/24 12:38:05;;;;;;;11.43;4.80;;;8.80;13.40;;;;;;5075250;28;20494;-58
2022/02/24 12:40:34;;;;;;;5.43;4.40;;;8.80;13.80;;;;;;5076185;28;20491;-58
2022/02/24 12:43:04;;;;;;;7.13;4.90;;;8.80;18.70;;;;;;5075855;28;20464;-59
2022/02/24 12:45:35;;;;;;;6.50;4.70;;;8.70;23.10;;;;;;5074525;28;20451;-58
2022/02/24 12:48:05;;;;;;;7.10;5.30;;;8.70;45.90;;;;;;5074992;28;20909;-59
2022/02/24 12:50:36;;;;;;;9.37;4.17;;;8.80;63.80;;;;;;5076469;28;20858;-59
2022/02/24 12:53:11;;;;;;;7.13;5.00;;;8.90;36.20;;;;;;5075068;28;20882;-57
2022/02/24 12:55:38;;;;;;;6.27;4.47;;;9.10;5.60;;;;;;5076649;28;20861;-57
2022/02/24 12:58:07;;;;;;;6.57;5.17;;;9.40;1.00;;;;;;5075711;28;20461;-59
2022/02/24 13:00:40;;;;;;;6.20;4.70;;;9.50;1.00;;;;;;5078780;28;20956;-60
2022/02/24 13:03:08;;;;;;;7.30;4.83;;;9.40;1.00;;;;;;5079860;28;20465;-59
2022/02/24 13:05:47;;;;;;;8.43;5.23;;;9.40;1.00;;;;;;5080524;28;20453;-60
2022/02/24 13:11:05;;;;;;;5.80;3.70;;;9.60;1.00;;;;;;5080365;28;20439;-60
2022/02/24 13:13:34;;;;;;;4.97;3.70;;;9.60;1.00;;;;;;5079089;28;20570;-57
2022/02/24 13:16:05;;;;;;;4.93;3.20;;;9.60;1.00;;;;;;5079128;28;20542;-59
2022/02/24 13:18:38;;;;;;;8.40;4.57;;;9.60;1.00;;;;;;5079092;28;20462;-59